sensor_id;sensor_type;location;lat;lon;timestamp;P1;durP1;ratioP1;P2;durP2;ratioP2
70967;SDS011;58629;48.808;8.820;2023-11-21T00:02:18;0.55;;;0.30;;
70967;SDS011;58629;48.808;8.820;2023-11-21T00:04:43;0.40;;;0.30;;
70967;SDS011;58629;48.808;8.820;2023-11-21T00:07:09;0.67;;;0.37;;
70967;SDS011;58629;48.808;8.820;2023-11-21T00:09:35;0.47;;;0.20;;
70967;SDS011;58629;48.808;8.820;2023-11-21T00:12:01;0.52;;;0.20;;
70967;SDS011;58629;48.808;8.820;2023-11-21T00:14:27;0.30;;;0.20;;
70967;SDS011;58629;48.808;8.820;2023-11-21T00:16:52;0.50;;;0.30;;
70967;SDS011;58629;48.808;8.820;2023-11-21T00:19:18;0.40;;;0.20;;
70967;SDS011;58629;48.808;8.820;2023-11-21T00:21:43;0.30;;;0.20;;
70967;SDS011;58629;48.808;8.820;2023-11-21T00:24:10;0.65;;;0.30;;
70967;SDS011;58629;48.808;8.820;2023-11-21T00:26:38;0.65;;;0.30;;
70967;SDS011;58629;48.808;8.820;2023-11-21T00:29:06;0.38;;;0.20;;
70967;SDS011;58629;48.808;8.820;2023-11-21T00:31:35;1.17;;;0.20;;
70967;SDS011;58629;48.808;8.820;2023-11-21T00:34:02;0.40;;;0.20;;
70967;SDS011;58629;48.808;8.820;2023-11-21T00:36:30;0.43;;;0.20;;
70967;SDS011;58629;48.808;8.820;2023-11-21T00:38:56;0.38;;;0.10;;
70967;SDS011;58629;48.808;8.820;2023-11-21T00:41:21;0.40;;;0.10;;
70967;SDS011;58629;48.808;8.820;2023-11-21T00:43:46;0.40;;;0.10;;
70967;SDS011;58629;48.808;8.820;2023-11-21T00:46:11;0.70;;;0.40;;
70967;SDS011;58629;48.808;8.820;2023-11-21T00:48:37;0.40;;;0.10;;
70967;SDS011;58629;48.808;8.820;2023-11-21T00:51:02;0.33;;;0.20;;
70967;SDS011;58629;48.808;8.820;2023-11-21T00:53:27;0.35;;;0.10;;
70967;SDS011;58629;48.808;8.820;2023-11-21T00:55:53;0.47;;;0.20;;
70967;SDS011;58629;48.808;8.820;2023-11-21T00:58:22;0.47;;;0.10;;
70967;SDS011;58629;48.808;8.820;2023-11-21T01:00:48;0.30;;;0.13;;
70967;SDS011;58629;48.808;8.820;2023-11-21T01:03:13;0.20;;;0.10;;
70967;SDS011;58629;48.808;8.820;2023-11-21T01:05:39;0.50;;;0.10;;
70967;SDS011;58629;48.808;8.820;2023-11-21T01:08:04;0.43;;;0.10;;
70967;SDS011;58629;48.808;8.820;2023-11-21T01:10:30;0.32;;;0.10;;
70967;SDS011;58629;48.808;8.820;2023-11-21T01:12:55;0.40;;;0.10;;
70967;SDS011;58629;48.808;8.820;2023-11-21T01:15:22;0.95;;;0.30;;
70967;SDS011;58629;48.808;8.820;2023-11-21T01:17:48;0.40;;;0.30;;
70967;SDS011;58629;48.808;8.820;2023-11-21T01:20:13;1.30;;;0.30;;
70967;SDS011;58629;48.808;8.820;2023-11-21T01:22:39;2.07;;;0.50;;
70967;SDS011;58629;48.808;8.820;2023-11-21T01:25:05;1.48;;;0.57;;
70967;SDS011;58629;48.808;8.820;2023-11-21T01:27:32;1.43;;;0.47;;
70967;SDS011;58629;48.808;8.820;2023-11-21T01:30:01;2.72;;;0.80;;
70967;SDS011;58629;48.808;8.820;2023-11-21T01:32:27;2.58;;;0.90;;
70967;SDS011;58629;48.808;8.820;2023-11-21T01:34:53;1.40;;;0.70;;
70967;SDS011;58629;48.808;8.820;2023-11-21T01:37:20;1.60;;;0.80;;
70967;SDS011;58629;48.808;8.820;2023-11-21T01:39:46;1.17;;;0.70;;
70967;SDS011;58629;48.808;8.820;2023-11-21T01:42:12;1.08;;;0.52;;
70967;SDS011;58629;48.808;8.820;2023-11-21T01:44:38;0.80;;;0.40;;
70967;SDS011;58629;48.808;8.820;2023-11-21T01:47:03;2.00;;;0.73;;
70967;SDS011;58629;48.808;8.820;2023-11-21T01:49:33;0.70;;;0.37;;
70967;SDS011;58629;48.808;8.820;2023-11-21T01:51:58;0.90;;;0.50;;
70967;SDS011;58629;48.808;8.820;2023-11-21T01:54:24;0.82;;;0.57;;
70967;SDS011;58629;48.808;8.820;2023-11-21T01:56:50;1.00;;;0.40;;
70967;SDS011;58629;48.808;8.820;2023-11-21T01:59:18;1.00;;;0.40;;
70967;SDS011;58629;48.808;8.820;2023-11-21T02:01:45;0.80;;;0.50;;
70967;SDS011;58629;48.808;8.820;2023-11-21T02:04:12;0.90;;;0.60;;
70967;SDS011;58629;48.808;8.820;2023-11-21T02:06:37;0.75;;;0.50;;
70967;SDS011;58629;48.808;8.820;2023-11-21T02:09:04;1.37;;;0.40;;
70967;SDS011;58629;48.808;8.820;2023-11-21T02:11:29;0.98;;;0.50;;
70967;SDS011;58629;48.808;8.820;2023-11-21T02:13:55;0.87;;;0.50;;
70967;SDS011;58629;48.808;8.820;2023-11-21T02:16:21;0.68;;;0.30;;
70967;SDS011;58629;48.808;8.820;2023-11-21T02:18:47;0.90;;;0.40;;
70967;SDS011;58629;48.808;8.820;2023-11-21T02:21:13;0.75;;;0.30;;
70967;SDS011;58629;48.808;8.820;2023-11-21T02:23:39;0.60;;;0.30;;
70967;SDS011;58629;48.808;8.820;2023-11-21T02:26:07;0.68;;;0.30;;
70967;SDS011;58629;48.808;8.820;2023-11-21T02:28:32;1.23;;;0.30;;
70967;SDS011;58629;48.808;8.820;2023-11-21T02:30:58;0.63;;;0.30;;
70967;SDS011;58629;48.808;8.820;2023-11-21T02:33:24;0.47;;;0.20;;
70967;SDS011;58629;48.808;8.820;2023-11-21T02:35:49;0.30;;;0.20;;
70967;SDS011;58629;48.808;8.820;2023-11-21T02:38:20;0.82;;;0.30;;
70967;SDS011;58629;48.808;8.820;2023-11-21T02:40:48;1.05;;;0.40;;
70967;SDS011;58629;48.808;8.820;2023-11-21T02:43:14;0.95;;;0.60;;
70967;SDS011;58629;48.808;8.820;2023-11-21T02:45:39;0.93;;;0.50;;
70967;SDS011;58629;48.808;8.820;2023-11-21T02:48:06;0.70;;;0.40;;
70967;SDS011;58629;48.808;8.820;2023-11-21T02:50:32;1.73;;;0.70;;
70967;SDS011;58629;48.808;8.820;2023-11-21T02:52:57;1.10;;;0.60;;
70967;SDS011;58629;48.808;8.820;2023-11-21T02:55:25;2.70;;;0.55;;
70967;SDS011;58629;48.808;8.820;2023-11-21T02:57:51;1.55;;;1.00;;
70967;SDS011;58629;48.808;8.820;2023-11-21T03:00:16;1.03;;;0.80;;
70967;SDS011;58629;48.808;8.820;2023-11-21T03:02:42;1.60;;;0.95;;
70967;SDS011;58629;48.808;8.820;2023-11-21T03:05:08;0.85;;;0.60;;
70967;SDS011;58629;48.808;8.820;2023-11-21T03:07:35;0.82;;;0.50;;
70967;SDS011;58629;48.808;8.820;2023-11-21T03:10:02;0.90;;;0.60;;
70967;SDS011;58629;48.808;8.820;2023-11-21T03:12:29;0.60;;;0.40;;
70967;SDS011;58629;48.808;8.820;2023-11-21T03:14:54;0.53;;;0.30;;
70967;SDS011;58629;48.808;8.820;2023-11-21T03:17:19;0.50;;;0.30;;
70967;SDS011;58629;48.808;8.820;2023-11-21T03:19:45;0.93;;;0.20;;
70967;SDS011;58629;48.808;8.820;2023-11-21T03:22:10;0.50;;;0.30;;
70967;SDS011;58629;48.808;8.820;2023-11-21T03:24:36;0.65;;;0.30;;
70967;SDS011;58629;48.808;8.820;2023-11-21T03:27:03;0.30;;;0.30;;
70967;SDS011;58629;48.808;8.820;2023-11-21T03:29:29;0.75;;;0.35;;
70967;SDS011;58629;48.808;8.820;2023-11-21T03:31:54;0.80;;;0.40;;
70967;SDS011;58629;48.808;8.820;2023-11-21T03:34:22;0.50;;;0.30;;
70967;SDS011;58629;48.808;8.820;2023-11-21T03:36:50;0.75;;;0.20;;
70967;SDS011;58629;48.808;8.820;2023-11-21T03:39:16;1.23;;;0.30;;
70967;SDS011;58629;48.808;8.820;2023-11-21T03:41:41;0.70;;;0.30;;
70967;SDS011;58629;48.808;8.820;2023-11-21T03:44:06;1.00;;;0.30;;
70967;SDS011;58629;48.808;8.820;2023-11-21T03:46:32;0.33;;;0.27;;
70967;SDS011;58629;48.808;8.820;2023-11-21T03:48:57;0.93;;;0.20;;
70967;SDS011;58629;48.808;8.820;2023-11-21T03:51:22;0.37;;;0.10;;
70967;SDS011;58629;48.808;8.820;2023-11-21T03:53:47;0.80;;;0.30;;
70967;SDS011;58629;48.808;8.820;2023-11-21T03:56:13;0.47;;;0.27;;
70967;SDS011;58629;48.808;8.820;2023-11-21T03:58:39;0.70;;;0.30;;
70967;SDS011;58629;48.808;8.820;2023-11-21T04:01:04;0.67;;;0.20;;
70967;SDS011;58629;48.808;8.820;2023-11-21T04:03:30;0.40;;;0.30;;
70967;SDS011;58629;48.808;8.820;2023-11-21T04:05:55;0.50;;;0.27;;
70967;SDS011;58629;48.808;8.820;2023-11-21T04:08:21;0.90;;;0.20;;
70967;SDS011;58629;48.808;8.820;2023-11-21T04:10:46;0.23;;;0.20;;
70967;SDS011;58629;48.808;8.820;2023-11-21T04:13:11;0.30;;;0.17;;
70967;SDS011;58629;48.808;8.820;2023-11-21T04:15:37;0.50;;;0.30;;
70967;SDS011;58629;48.808;8.820;2023-11-21T04:18:02;0.85;;;0.20;;
70967;SDS011;58629;48.808;8.820;2023-11-21T04:20:28;0.83;;;0.30;;
70967;SDS011;58629;48.808;8.820;2023-11-21T04:22:53;0.40;;;0.30;;
70967;SDS011;58629;48.808;8.820;2023-11-21T04:25:18;0.97;;;0.30;;
70967;SDS011;58629;48.808;8.820;2023-11-21T04:27:44;1.48;;;0.47;;
70967;SDS011;58629;48.808;8.820;2023-11-21T04:30:10;0.20;;;0.20;;
70967;SDS011;58629;48.808;8.820;2023-11-21T04:32:37;0.30;;;0.10;;
70967;SDS011;58629;48.808;8.820;2023-11-21T04:35:02;0.70;;;0.30;;
70967;SDS011;58629;48.808;8.820;2023-11-21T04:37:29;0.50;;;0.28;;
70967;SDS011;58629;48.808;8.820;2023-11-21T04:39:54;0.70;;;0.30;;
70967;SDS011;58629;48.808;8.820;2023-11-21T04:42:19;0.83;;;0.30;;
70967;SDS011;58629;48.808;8.820;2023-11-21T04:44:45;0.80;;;0.30;;
70967;SDS011;58629;48.808;8.820;2023-11-21T04:47:10;0.30;;;0.17;;
70967;SDS011;58629;48.808;8.820;2023-11-21T04:49:35;0.60;;;0.27;;
70967;SDS011;58629;48.808;8.820;2023-11-21T04:52:01;0.30;;;0.20;;
70967;SDS011;58629;48.808;8.820;2023-11-21T04:54:28;0.40;;;0.20;;
70967;SDS011;58629;48.808;8.820;2023-11-21T04:56:54;1.13;;;0.50;;
70967;SDS011;58629;48.808;8.820;2023-11-21T04:59:19;0.90;;;0.40;;
70967;SDS011;58629;48.808;8.820;2023-11-21T05:01:44;0.90;;;0.40;;
70967;SDS011;58629;48.808;8.820;2023-11-21T05:04:09;1.07;;;0.30;;
70967;SDS011;58629;48.808;8.820;2023-11-21T05:06:35;1.30;;;0.50;;
70967;SDS011;58629;48.808;8.820;2023-11-21T05:09:00;1.43;;;0.40;;
70967;SDS011;58629;48.808;8.820;2023-11-21T05:11:26;0.40;;;0.20;;
70967;SDS011;58629;48.808;8.820;2023-11-21T05:13:52;0.40;;;0.23;;
70967;SDS011;58629;48.808;8.820;2023-11-21T05:16:19;0.45;;;0.20;;
70967;SDS011;58629;48.808;8.820;2023-11-21T05:18:45;0.30;;;0.20;;
70967;SDS011;58629;48.808;8.820;2023-11-21T05:21:10;1.00;;;0.20;;
70967;SDS011;58629;48.808;8.820;2023-11-21T05:23:35;0.40;;;0.30;;
70967;SDS011;58629;48.808;8.820;2023-11-21T05:26:02;0.73;;;0.25;;
70967;SDS011;58629;48.808;8.820;2023-11-21T05:28:28;0.60;;;0.50;;
70967;SDS011;58629;48.808;8.820;2023-11-21T05:30:53;0.80;;;0.40;;
70967;SDS011;58629;48.808;8.820;2023-11-21T05:33:18;1.40;;;0.40;;
70967;SDS011;58629;48.808;8.820;2023-11-21T05:35:44;0.88;;;0.30;;
70967;SDS011;58629;48.808;8.820;2023-11-21T05:38:09;0.30;;;0.20;;
70967;SDS011;58629;48.808;8.820;2023-11-21T05:40:34;0.93;;;0.40;;
70967;SDS011;58629;48.808;8.820;2023-11-21T05:42:59;1.13;;;0.40;;
70967;SDS011;58629;48.808;8.820;2023-11-21T05:45:25;0.90;;;0.40;;
70967;SDS011;58629;48.808;8.820;2023-11-21T05:47:50;0.50;;;0.40;;
70967;SDS011;58629;48.808;8.820;2023-11-21T05:50:16;0.73;;;0.30;;
70967;SDS011;58629;48.808;8.820;2023-11-21T05:52:42;0.73;;;0.40;;
70967;SDS011;58629;48.808;8.820;2023-11-21T05:55:09;0.30;;;0.20;;
70967;SDS011;58629;48.808;8.820;2023-11-21T05:57:35;0.75;;;0.52;;
70967;SDS011;58629;48.808;8.820;2023-11-21T06:00:05;0.90;;;0.40;;
70967;SDS011;58629;48.808;8.820;2023-11-21T06:02:50;0.60;;;0.50;;
70967;SDS011;58629;48.808;8.820;2023-11-21T06:05:18;0.60;;;0.40;;
70967;SDS011;58629;48.808;8.820;2023-11-21T06:07:45;0.80;;;0.43;;
70967;SDS011;58629;48.808;8.820;2023-11-21T06:10:11;1.77;;;0.60;;
70967;SDS011;58629;48.808;8.820;2023-11-21T06:12:40;1.37;;;0.60;;
70967;SDS011;58629;48.808;8.820;2023-11-21T06:15:07;1.75;;;0.40;;
70967;SDS011;58629;48.808;8.820;2023-11-21T06:17:34;1.25;;;0.50;;
70967;SDS011;58629;48.808;8.820;2023-11-21T06:20:01;2.55;;;0.50;;
70967;SDS011;58629;48.808;8.820;2023-11-21T06:22:34;1.60;;;0.30;;
70967;SDS011;58629;48.808;8.820;2023-11-21T06:25:02;1.13;;;0.47;;
70967;SDS011;58629;48.808;8.820;2023-11-21T06:27:29;1.50;;;0.47;;
70967;SDS011;58629;48.808;8.820;2023-11-21T06:29:55;1.20;;;0.60;;
70967;SDS011;58629;48.808;8.820;2023-11-21T06:32:20;0.70;;;0.27;;
70967;SDS011;58629;48.808;8.820;2023-11-21T06:34:47;1.48;;;0.40;;
70967;SDS011;58629;48.808;8.820;2023-11-21T06:37:13;1.33;;;0.40;;
70967;SDS011;58629;48.808;8.820;2023-11-21T06:39:38;0.50;;;0.30;;
70967;SDS011;58629;48.808;8.820;2023-11-21T06:42:03;0.50;;;0.30;;
70967;SDS011;58629;48.808;8.820;2023-11-21T06:44:29;0.57;;;0.20;;
70967;SDS011;58629;48.808;8.820;2023-11-21T06:46:54;0.87;;;0.23;;
70967;SDS011;58629;48.808;8.820;2023-11-21T06:49:20;0.40;;;0.25;;
70967;SDS011;58629;48.808;8.820;2023-11-21T06:51:45;2.10;;;0.50;;
70967;SDS011;58629;48.808;8.820;2023-11-21T06:54:10;1.40;;;0.50;;
70967;SDS011;58629;48.808;8.820;2023-11-21T06:56:36;1.53;;;0.50;;
70967;SDS011;58629;48.808;8.820;2023-11-21T06:59:01;1.03;;;0.50;;
70967;SDS011;58629;48.808;8.820;2023-11-21T07:01:28;1.40;;;0.30;;
70967;SDS011;58629;48.808;8.820;2023-11-21T07:03:53;0.53;;;0.30;;
70967;SDS011;58629;48.808;8.820;2023-11-21T07:06:18;0.60;;;0.40;;
70967;SDS011;58629;48.808;8.820;2023-11-21T07:08:44;1.27;;;0.50;;
70967;SDS011;58629;48.808;8.820;2023-11-21T07:11:09;2.77;;;0.97;;
70967;SDS011;58629;48.808;8.820;2023-11-21T07:13:34;3.03;;;1.07;;
70967;SDS011;58629;48.808;8.820;2023-11-21T07:16:00;2.45;;;1.10;;
70967;SDS011;58629;48.808;8.820;2023-11-21T07:18:25;4.27;;;2.07;;
70967;SDS011;58629;48.808;8.820;2023-11-21T07:20:50;6.17;;;3.07;;
70967;SDS011;58629;48.808;8.820;2023-11-21T07:23:17;5.10;;;2.40;;
70967;SDS011;58629;48.808;8.820;2023-11-21T07:25:42;3.20;;;1.87;;
70967;SDS011;58629;48.808;8.820;2023-11-21T07:28:08;4.10;;;1.90;;
70967;SDS011;58629;48.808;8.820;2023-11-21T07:30:33;3.97;;;1.88;;
70967;SDS011;58629;48.808;8.820;2023-11-21T07:32:59;4.17;;;2.27;;
70967;SDS011;58629;48.808;8.820;2023-11-21T07:35:24;4.03;;;2.17;;
70967;SDS011;58629;48.808;8.820;2023-11-21T07:37:49;5.17;;;2.70;;
70967;SDS011;58629;48.808;8.820;2023-11-21T07:40:15;3.93;;;2.23;;
70967;SDS011;58629;48.808;8.820;2023-11-21T07:42:41;4.18;;;2.35;;
70967;SDS011;58629;48.808;8.820;2023-11-21T07:45:07;3.88;;;1.70;;
70967;SDS011;58629;48.808;8.820;2023-11-21T07:47:33;1.93;;;1.10;;
70967;SDS011;58629;48.808;8.820;2023-11-21T07:49:59;2.72;;;1.00;;
70967;SDS011;58629;48.808;8.820;2023-11-21T07:52:25;1.95;;;0.80;;
70967;SDS011;58629;48.808;8.820;2023-11-21T07:54:50;1.77;;;0.80;;
70967;SDS011;58629;48.808;8.820;2023-11-21T07:57:16;2.10;;;0.80;;
70967;SDS011;58629;48.808;8.820;2023-11-21T07:59:41;2.87;;;1.00;;
70967;SDS011;58629;48.808;8.820;2023-11-21T08:02:06;1.67;;;1.10;;
70967;SDS011;58629;48.808;8.820;2023-11-21T08:04:32;2.13;;;1.20;;
70967;SDS011;58629;48.808;8.820;2023-11-21T08:06:59;1.60;;;0.95;;
70967;SDS011;58629;48.808;8.820;2023-11-21T08:09:24;2.30;;;1.13;;
70967;SDS011;58629;48.808;8.820;2023-11-21T08:11:50;1.67;;;1.00;;
70967;SDS011;58629;48.808;8.820;2023-11-21T08:14:17;1.75;;;1.00;;
70967;SDS011;58629;48.808;8.820;2023-11-21T08:16:42;1.50;;;1.03;;
70967;SDS011;58629;48.808;8.820;2023-11-21T08:19:07;1.60;;;1.10;;
70967;SDS011;58629;48.808;8.820;2023-11-21T08:21:34;1.63;;;0.90;;
70967;SDS011;58629;48.808;8.820;2023-11-21T08:24:00;1.27;;;0.80;;
70967;SDS011;58629;48.808;8.820;2023-11-21T08:26:27;1.80;;;0.95;;
70967;SDS011;58629;48.808;8.820;2023-11-21T08:28:52;1.77;;;1.20;;
70967;SDS011;58629;48.808;8.820;2023-11-21T08:31:23;2.47;;;1.27;;
70967;SDS011;58629;48.808;8.820;2023-11-21T08:33:49;1.97;;;1.30;;
70967;SDS011;58629;48.808;8.820;2023-11-21T08:36:14;1.87;;;1.20;;
70967;SDS011;58629;48.808;8.820;2023-11-21T08:38:40;1.85;;;1.17;;
70967;SDS011;58629;48.808;8.820;2023-11-21T08:41:06;1.83;;;1.10;;
70967;SDS011;58629;48.808;8.820;2023-11-21T08:43:33;2.20;;;1.20;;
70967;SDS011;58629;48.808;8.820;2023-11-21T08:46:05;2.30;;;1.00;;
70967;SDS011;58629;48.808;8.820;2023-11-21T08:48:31;2.13;;;1.40;;
70967;SDS011;58629;48.808;8.820;2023-11-21T08:50:56;1.17;;;0.80;;
70967;SDS011;58629;48.808;8.820;2023-11-21T08:53:22;0.93;;;0.63;;
70967;SDS011;58629;48.808;8.820;2023-11-21T08:55:47;1.00;;;0.70;;
70967;SDS011;58629;48.808;8.820;2023-11-21T08:58:15;0.82;;;0.60;;
70967;SDS011;58629;48.808;8.820;2023-11-21T09:00:40;0.73;;;0.43;;
70967;SDS011;58629;48.808;8.820;2023-11-21T09:03:06;0.90;;;0.60;;
70967;SDS011;58629;48.808;8.820;2023-11-21T09:05:33;0.73;;;0.50;;
70967;SDS011;58629;48.808;8.820;2023-11-21T09:08:02;1.15;;;0.65;;
70967;SDS011;58629;48.808;8.820;2023-11-21T09:10:27;0.80;;;0.60;;
70967;SDS011;58629;48.808;8.820;2023-11-21T09:12:53;1.73;;;0.70;;
70967;SDS011;58629;48.808;8.820;2023-11-21T09:15:18;1.10;;;0.60;;
70967;SDS011;58629;48.808;8.820;2023-11-21T09:17:45;0.95;;;0.60;;
70967;SDS011;58629;48.808;8.820;2023-11-21T09:20:10;0.93;;;0.60;;
70967;SDS011;58629;48.808;8.820;2023-11-21T09:22:36;0.93;;;0.60;;
70967;SDS011;58629;48.808;8.820;2023-11-21T09:25:01;1.03;;;0.40;;
70967;SDS011;58629;48.808;8.820;2023-11-21T09:27:30;0.38;;;0.30;;
70967;SDS011;58629;48.808;8.820;2023-11-21T09:29:58;1.20;;;0.50;;
70967;SDS011;58629;48.808;8.820;2023-11-21T09:32:23;0.95;;;0.40;;
70967;SDS011;58629;48.808;8.820;2023-11-21T09:34:49;0.40;;;0.17;;
70967;SDS011;58629;48.808;8.820;2023-11-21T09:37:15;0.45;;;0.30;;
70967;SDS011;58629;48.808;8.820;2023-11-21T09:39:41;0.75;;;0.40;;
70967;SDS011;58629;48.808;8.820;2023-11-21T09:42:17;1.65;;;0.50;;
70967;SDS011;58629;48.808;8.820;2023-11-21T09:44:57;0.77;;;0.40;;
70967;SDS011;58629;48.808;8.820;2023-11-21T09:47:29;0.57;;;0.40;;
70967;SDS011;58629;48.808;8.820;2023-11-21T09:49:54;0.60;;;0.23;;
70967;SDS011;58629;48.808;8.820;2023-11-21T09:52:26;0.47;;;0.30;;
70967;SDS011;58629;48.808;8.820;2023-11-21T09:54:52;1.00;;;0.40;;
70967;SDS011;58629;48.808;8.820;2023-11-21T09:57:22;0.60;;;0.40;;
70967;SDS011;58629;48.808;8.820;2023-11-21T09:59:52;0.60;;;0.30;;
70967;SDS011;58629;48.808;8.820;2023-11-21T10:02:24;2.50;;;0.55;;
70967;SDS011;58629;48.808;8.820;2023-11-21T10:04:51;0.57;;;0.40;;
70967;SDS011;58629;48.808;8.820;2023-11-21T10:07:17;0.35;;;0.28;;
70967;SDS011;58629;48.808;8.820;2023-11-21T10:09:45;2.28;;;0.32;;
70967;SDS011;58629;48.808;8.820;2023-11-21T10:12:11;0.40;;;0.20;;
70967;SDS011;58629;48.808;8.820;2023-11-21T10:14:41;0.30;;;0.20;;
70967;SDS011;58629;48.808;8.820;2023-11-21T10:17:08;2.17;;;0.30;;
70967;SDS011;58629;48.808;8.820;2023-11-21T10:19:37;0.43;;;0.22;;
70967;SDS011;58629;48.808;8.820;2023-11-21T10:22:04;0.40;;;0.30;;
70967;SDS011;58629;48.808;8.820;2023-11-21T10:24:31;0.50;;;0.30;;
70967;SDS011;58629;48.808;8.820;2023-11-21T10:26:57;0.30;;;0.20;;
70967;SDS011;58629;48.808;8.820;2023-11-21T10:29:23;0.30;;;0.20;;
70967;SDS011;58629;48.808;8.820;2023-11-21T10:31:51;0.70;;;0.30;;
70967;SDS011;58629;48.808;8.820;2023-11-21T10:34:19;0.60;;;0.40;;
70967;SDS011;58629;48.808;8.820;2023-11-21T10:36:46;0.85;;;0.60;;
70967;SDS011;58629;48.808;8.820;2023-11-21T10:39:18;1.23;;;0.80;;
70967;SDS011;58629;48.808;8.820;2023-11-21T10:41:45;1.08;;;0.80;;
70967;SDS011;58629;48.808;8.820;2023-11-21T10:44:13;1.50;;;0.88;;
70967;SDS011;58629;48.808;8.820;2023-11-21T10:46:49;1.70;;;1.08;;
70967;SDS011;58629;48.808;8.820;2023-11-21T10:49:22;2.05;;;1.10;;
70967;SDS011;58629;48.808;8.820;2023-11-21T10:51:50;2.30;;;1.20;;
70967;SDS011;58629;48.808;8.820;2023-11-21T10:54:20;1.90;;;1.25;;
70967;SDS011;58629;48.808;8.820;2023-11-21T10:56:50;2.70;;;1.40;;
70967;SDS011;58629;48.808;8.820;2023-11-21T10:59:22;2.92;;;1.65;;
70967;SDS011;58629;48.808;8.820;2023-11-21T11:01:50;2.45;;;1.35;;
70967;SDS011;58629;48.808;8.820;2023-11-21T11:04:18;2.27;;;1.37;;
70967;SDS011;58629;48.808;8.820;2023-11-21T11:06:44;3.15;;;1.75;;
70967;SDS011;58629;48.808;8.820;2023-11-21T11:09:19;2.70;;;1.75;;
70967;SDS011;58629;48.808;8.820;2023-11-21T11:11:45;4.00;;;2.30;;
70967;SDS011;58629;48.808;8.820;2023-11-21T11:14:11;3.80;;;2.30;;
70967;SDS011;58629;48.808;8.820;2023-11-21T11:16:41;4.67;;;2.63;;
70967;SDS011;58629;48.808;8.820;2023-11-21T11:19:08;3.72;;;2.15;;
70967;SDS011;58629;48.808;8.820;2023-11-21T11:24:28;4.53;;;2.42;;
70967;SDS011;58629;48.808;8.820;2023-11-21T11:26:58;4.45;;;2.42;;
70967;SDS011;58629;48.808;8.820;2023-11-21T11:30:23;5.03;;;2.87;;
70967;SDS011;58629;48.808;8.820;2023-11-21T11:32:35;4.68;;;2.85;;
70967;SDS011;58629;48.808;8.820;2023-11-21T11:35:42;4.20;;;2.58;;
70967;SDS011;58629;48.808;8.820;2023-11-21T11:38:27;5.25;;;3.10;;
70967;SDS011;58629;48.808;8.820;2023-11-21T11:40:57;5.75;;;3.05;;
70967;SDS011;58629;48.808;8.820;2023-11-21T11:43:27;4.70;;;2.93;;
70967;SDS011;58629;48.808;8.820;2023-11-21T11:45:57;4.75;;;2.80;;
70967;SDS011;58629;48.808;8.820;2023-11-21T11:48:28;5.20;;;3.22;;
70967;SDS011;58629;48.808;8.820;2023-11-21T11:51:03;4.60;;;2.93;;
70967;SDS011;58629;48.808;8.820;2023-11-21T11:53:36;5.07;;;3.10;;
70967;SDS011;58629;48.808;8.820;2023-11-21T11:58:56;5.67;;;3.27;;
70967;SDS011;58629;48.808;8.820;2023-11-21T12:01:24;6.43;;;3.70;;
70967;SDS011;58629;48.808;8.820;2023-11-21T12:06:56;5.57;;;2.83;;
70967;SDS011;58629;48.808;8.820;2023-11-21T12:09:23;5.95;;;3.28;;
70967;SDS011;58629;48.808;8.820;2023-11-21T12:11:51;4.87;;;2.90;;
70967;SDS011;58629;48.808;8.820;2023-11-21T12:14:17;6.15;;;3.15;;
70967;SDS011;58629;48.808;8.820;2023-11-21T12:16:43;5.80;;;3.20;;
70967;SDS011;58629;48.808;8.820;2023-11-21T12:19:09;5.82;;;3.50;;
70967;SDS011;58629;48.808;8.820;2023-11-21T12:21:36;5.07;;;2.75;;
70967;SDS011;58629;48.808;8.820;2023-11-21T12:24:01;6.37;;;3.33;;
70967;SDS011;58629;48.808;8.820;2023-11-21T12:26:28;4.47;;;2.50;;
70967;SDS011;58629;48.808;8.820;2023-11-21T12:28:53;7.15;;;3.80;;
70967;SDS011;58629;48.808;8.820;2023-11-21T12:31:25;7.07;;;3.78;;
70967;SDS011;58629;48.808;8.820;2023-11-21T12:33:50;7.10;;;3.63;;
70967;SDS011;58629;48.808;8.820;2023-11-21T12:36:16;6.35;;;3.30;;
70967;SDS011;58629;48.808;8.820;2023-11-21T12:38:42;8.30;;;4.40;;
70967;SDS011;58629;48.808;8.820;2023-11-21T12:41:09;7.63;;;4.00;;
70967;SDS011;58629;48.808;8.820;2023-11-21T12:43:38;11.45;;;5.35;;
70967;SDS011;58629;48.808;8.820;2023-11-21T12:46:07;9.27;;;5.23;;
70967;SDS011;58629;48.808;8.820;2023-11-21T12:48:36;9.80;;;5.18;;
70967;SDS011;58629;48.808;8.820;2023-11-21T12:51:02;12.27;;;7.90;;
70967;SDS011;58629;48.808;8.820;2023-11-21T12:53:29;13.07;;;7.25;;
70967;SDS011;58629;48.808;8.820;2023-11-21T12:56:02;13.45;;;7.68;;
70967;SDS011;58629;48.808;8.820;2023-11-21T12:58:28;8.90;;;4.77;;
70967;SDS011;58629;48.808;8.820;2023-11-21T13:00:54;7.45;;;4.78;;
70967;SDS011;58629;48.808;8.820;2023-11-21T13:03:22;7.10;;;4.38;;
70967;SDS011;58629;48.808;8.820;2023-11-21T13:05:50;8.65;;;3.95;;
70967;SDS011;58629;48.808;8.820;2023-11-21T13:08:18;6.82;;;3.88;;
70967;SDS011;58629;48.808;8.820;2023-11-21T13:10:46;7.33;;;3.63;;
70967;SDS011;58629;48.808;8.820;2023-11-21T13:13:13;7.75;;;3.80;;
70967;SDS011;58629;48.808;8.820;2023-11-21T13:15:50;6.95;;;4.07;;
70967;SDS011;58629;48.808;8.820;2023-11-21T13:18:17;7.95;;;4.20;;
70967;SDS011;58629;48.808;8.820;2023-11-21T13:20:43;5.17;;;2.60;;
70967;SDS011;58629;48.808;8.820;2023-11-21T13:23:09;5.82;;;3.20;;
70967;SDS011;58629;48.808;8.820;2023-11-21T13:25:40;4.80;;;2.85;;
70967;SDS011;58629;48.808;8.820;2023-11-21T13:28:07;3.50;;;1.92;;
70967;SDS011;58629;48.808;8.820;2023-11-21T13:30:34;3.47;;;1.90;;
70967;SDS011;58629;48.808;8.820;2023-11-21T13:33:01;10.23;;;2.85;;
70967;SDS011;58629;48.808;8.820;2023-11-21T13:35:33;2.45;;;1.70;;
70967;SDS011;58629;48.808;8.820;2023-11-21T13:38:06;2.67;;;1.40;;
70967;SDS011;58629;48.808;8.820;2023-11-21T13:40:34;3.77;;;2.00;;
70967;SDS011;58629;48.808;8.820;2023-11-21T13:43:07;3.08;;;1.80;;
70967;SDS011;58629;48.808;8.820;2023-11-21T13:45:35;4.18;;;2.20;;
70967;SDS011;58629;48.808;8.820;2023-11-21T13:48:04;3.10;;;1.77;;
70967;SDS011;58629;48.808;8.820;2023-11-21T13:50:34;3.75;;;2.10;;
70967;SDS011;58629;48.808;8.820;2023-11-21T13:53:00;3.20;;;1.90;;
70967;SDS011;58629;48.808;8.820;2023-11-21T13:55:43;3.60;;;1.90;;
70967;SDS011;58629;48.808;8.820;2023-11-21T13:58:10;3.20;;;1.92;;
70967;SDS011;58629;48.808;8.820;2023-11-21T14:00:41;3.45;;;1.55;;
70967;SDS011;58629;48.808;8.820;2023-11-21T14:03:10;2.37;;;1.70;;
70967;SDS011;58629;48.808;8.820;2023-11-21T14:05:44;2.67;;;1.60;;
70967;SDS011;58629;48.808;8.820;2023-11-21T14:08:12;2.10;;;1.50;;
70967;SDS011;58629;48.808;8.820;2023-11-21T14:10:44;1.92;;;1.30;;
70967;SDS011;58629;48.808;8.820;2023-11-21T14:13:16;2.38;;;1.63;;
70967;SDS011;58629;48.808;8.820;2023-11-21T14:15:42;2.70;;;1.67;;
70967;SDS011;58629;48.808;8.820;2023-11-21T14:18:11;1.60;;;1.15;;
70967;SDS011;58629;48.808;8.820;2023-11-21T14:20:39;2.35;;;1.30;;
70967;SDS011;58629;48.808;8.820;2023-11-21T14:23:05;2.22;;;1.50;;
70967;SDS011;58629;48.808;8.820;2023-11-21T14:25:36;3.38;;;1.60;;
70967;SDS011;58629;48.808;8.820;2023-11-21T14:28:04;2.20;;;1.30;;
70967;SDS011;58629;48.808;8.820;2023-11-21T14:30:31;3.55;;;1.95;;
70967;SDS011;58629;48.808;8.820;2023-11-21T14:33:01;2.95;;;1.90;;
70967;SDS011;58629;48.808;8.820;2023-11-21T14:35:27;2.67;;;1.98;;
70967;SDS011;58629;48.808;8.820;2023-11-21T14:37:55;1.40;;;1.10;;
70967;SDS011;58629;48.808;8.820;2023-11-21T14:40:20;1.33;;;0.80;;
70967;SDS011;58629;48.808;8.820;2023-11-21T14:42:49;1.17;;;0.70;;
70967;SDS011;58629;48.808;8.820;2023-11-21T14:45:19;1.43;;;0.90;;
70967;SDS011;58629;48.808;8.820;2023-11-21T14:47:48;1.00;;;0.70;;
70967;SDS011;58629;48.808;8.820;2023-11-21T14:50:23;1.60;;;0.90;;
70967;SDS011;58629;48.808;8.820;2023-11-21T14:53:09;1.80;;;0.90;;
70967;SDS011;58629;48.808;8.820;2023-11-21T14:55:37;1.50;;;1.00;;
70967;SDS011;58629;48.808;8.820;2023-11-21T14:58:15;1.27;;;0.95;;